sensor_id;sensor_type;location;lat;lon;timestamp;pressure;altitude;pressure_sealevel;temperature;humidity
29733;BME280;16643;43.158;25.302;2023-02-12T00:01:09;99042.03;;;0.76;68.53
29733;BME280;16643;43.158;25.302;2023-02-12T00:03:36;99046.00;;;0.63;68.27
29733;BME280;16643;43.158;25.302;2023-02-12T00:06:01;99049.47;;;0.65;68.83
29733;BME280;16643;43.158;25.302;2023-02-12T00:08:27;99043.97;;;0.50;69.58
29733;BME280;16643;43.158;25.302;2023-02-12T00:10:52;99052.75;;;0.61;68.40
29733;BME280;16643;43.158;25.302;2023-02-12T00:13:18;99062.28;;;0.66;69.21
29733;BME280;16643;43.158;25.302;2023-02-12T00:15:43;99062.31;;;0.68;68.69
29733;BME280;16643;43.158;25.302;2023-02-12T00:18:09;99051.16;;;0.64;68.69
29733;BME280;16643;43.158;25.302;2023-02-12T00:20:35;99045.81;;;0.55;69.53
29733;BME280;16643;43.158;25.302;2023-02-12T00:23:01;99043.13;;;0.51;70.00
29733;BME280;16643;43.158;25.302;2023-02-12T00:25:26;99043.00;;;0.46;69.85
29733;BME280;16643;43.158;25.302;2023-02-12T00:27:52;99051.38;;;0.39;69.62
29733;BME280;16643;43.158;25.302;2023-02-12T00:30:17;99041.38;;;0.48;69.40
29733;BME280;16643;43.158;25.302;2023-02-12T00:32:44;99042.19;;;0.47;69.73
29733;BME280;16643;43.158;25.302;2023-02-12T00:35:09;99047.25;;;0.46;69.85
29733;BME280;16643;43.158;25.302;2023-02-12T00:37:35;99045.16;;;0.29;69.54
29733;BME280;16643;43.158;25.302;2023-02-12T00:40:00;99045.06;;;0.26;70.22
29733;BME280;16643;43.158;25.302;2023-02-12T00:42:26;99039.13;;;0.27;70.46
29733;BME280;16643;43.158;25.302;2023-02-12T00:44:51;99033.25;;;0.30;70.78
29733;BME280;16643;43.158;25.302;2023-02-12T00:47:17;99039.28;;;0.32;71.50
29733;BME280;16643;43.158;25.302;2023-02-12T00:49:42;99039.31;;;0.35;71.03
29733;BME280;16643;43.158;25.302;2023-02-12T00:52:07;99039.59;;;0.44;70.74
29733;BME280;16643;43.158;25.302;2023-02-12T00:54:33;99049.69;;;0.40;70.86
29733;BME280;16643;43.158;25.302;2023-02-12T00:56:58;99027.44;;;0.37;71.54
29733;BME280;16643;43.158;25.302;2023-02-12T00:59:24;99028.34;;;0.39;71.82
29733;BME280;16643;43.158;25.302;2023-02-12T01:01:50;99026.41;;;0.29;72.28
29733;BME280;16643;43.158;25.302;2023-02-12T01:04:16;99028.13;;;0.30;72.92
29733;BME280;16643;43.158;25.302;2023-02-12T01:06:42;99019.66;;;0.31;72.92
29733;BME280;16643;43.158;25.302;2023-02-12T01:09:08;99028.91;;;0.27;73.69
29733;BME280;16643;43.158;25.302;2023-02-12T01:11:33;99024.72;;;0.29;74.01
29733;BME280;16643;43.158;25.302;2023-02-12T01:13:59;99016.19;;;0.29;74.42
29733;BME280;16643;43.158;25.302;2023-02-12T01:16:24;99025.53;;;0.28;75.32
29733;BME280;16643;43.158;25.302;2023-02-12T01:18:51;99020.47;;;0.30;75.35
29733;BME280;16643;43.158;25.302;2023-02-12T01:21:18;99017.91;;;0.30;74.85
29733;BME280;16643;43.158;25.302;2023-02-12T01:23:43;99012.91;;;0.34;74.72
29733;BME280;16643;43.158;25.302;2023-02-12T01:26:09;99008.66;;;0.33;74.49
29733;BME280;16643;43.158;25.302;2023-02-12T01:28:36;98995.88;;;0.33;74.95
29733;BME280;16643;43.158;25.302;2023-02-12T01:31:06;98992.50;;;0.36;74.86
29733;BME280;16643;43.158;25.302;2023-02-12T01:33:31;98984.03;;;0.39;75.16
29733;BME280;16643;43.158;25.302;2023-02-12T01:35:57;98992.50;;;0.36;75.52
29733;BME280;16643;43.158;25.302;2023-02-12T01:38:22;98979.13;;;0.48;75.02
29733;BME280;16643;43.158;25.302;2023-02-12T01:40:48;98982.69;;;0.53;73.99
29733;BME280;16643;43.158;25.302;2023-02-12T01:43:13;98969.84;;;0.51;74.94
29733;BME280;16643;43.158;25.302;2023-02-12T01:45:43;98969.94;;;0.54;74.69
29733;BME280;16643;43.158;25.302;2023-02-12T01:48:11;98970.88;;;0.59;74.85
29733;BME280;16643;43.158;25.302;2023-02-12T01:50:37;98975.19;;;0.60;74.24
29733;BME280;16643;43.158;25.302;2023-02-12T01:53:03;98976.13;;;0.64;74.17
29733;BME280;16643;43.158;25.302;2023-02-12T01:55:28;98980.41;;;0.65;72.81
29733;BME280;16643;43.158;25.302;2023-02-12T01:57:54;98983.09;;;0.71;73.63
29733;BME280;16643;43.158;25.302;2023-02-12T02:00:21;98968.69;;;0.75;73.22
29733;BME280;16643;43.158;25.302;2023-02-12T02:02:48;98958.53;;;0.79;72.95
29733;BME280;16643;43.158;25.302;2023-02-12T02:05:14;98954.38;;;0.83;72.74
29733;BME280;16643;43.158;25.302;2023-02-12T02:07:42;98951.72;;;0.78;72.79
29733;BME280;16643;43.158;25.302;2023-02-12T02:10:08;98948.31;;;0.79;71.76
29733;BME280;16643;43.158;25.302;2023-02-12T02:12:33;98956.09;;;0.84;71.36
29733;BME280;16643;43.158;25.302;2023-02-12T02:15:18;98959.56;;;0.86;72.20
29733;BME280;16643;43.158;25.302;2023-02-12T02:17:45;98963.78;;;0.84;71.25
29733;BME280;16643;43.158;25.302;2023-02-12T02:23:21;98947.50;;;0.80;70.09
29733;BME280;16643;43.158;25.302;2023-02-12T02:31:29;98947.09;;;0.62;71.44
29733;BME280;16643;43.158;25.302;2023-02-12T02:39:18;98944.88;;;0.77;70.02
29733;BME280;16643;43.158;25.302;2023-02-12T02:41:56;98941.50;;;0.78;71.02
29733;BME280;16643;43.158;25.302;2023-02-12T02:44:24;98938.09;;;0.79;69.40
29733;BME280;16643;43.158;25.302;2023-02-12T02:46:51;98942.44;;;0.83;69.42
29733;BME280;16643;43.158;25.302;2023-02-12T02:52:07;98940.00;;;0.88;69.05
29733;BME280;16643;43.158;25.302;2023-02-12T02:54:53;98953.78;;;0.94;69.54
29733;BME280;16643;43.158;25.302;2023-02-12T02:57:21;98945.19;;;0.92;70.44
29733;BME280;16643;43.158;25.302;2023-02-12T02:59:51;98947.63;;;0.86;71.78
29733;BME280;16643;43.158;25.302;2023-02-12T03:02:19;98946.88;;;0.92;71.74
29733;BME280;16643;43.158;25.302;2023-02-12T03:04:48;98975.03;;;0.92;72.67
29733;BME280;16643;43.158;25.302;2023-02-12T03:09:42;98944.41;;;0.95;74.39
29733;BME280;16643;43.158;25.302;2023-02-12T03:12:18;98931.53;;;0.92;74.48
29733;BME280;16643;43.158;25.302;2023-02-12T03:14:47;98943.53;;;0.94;73.50
29733;BME280;16643;43.158;25.302;2023-02-12T03:17:22;98943.63;;;0.97;74.42
29733;BME280;16643;43.158;25.302;2023-02-12T03:19:50;98937.75;;;1.01;74.06
29733;BME280;16643;43.158;25.302;2023-02-12T03:22:19;98952.28;;;1.04;74.31
29733;BME280;16643;43.158;25.302;2023-02-12T03:24:49;98936.91;;;1.04;75.17
29733;BME280;16643;43.158;25.302;2023-02-12T03:27:16;98936.19;;;1.09;74.67
29733;BME280;16643;43.158;25.302;2023-02-12T03:29:43;98935.25;;;1.06;76.15
29733;BME280;16643;43.158;25.302;2023-02-12T03:32:29;98938.69;;;1.06;75.31
29733;BME280;16643;43.158;25.302;2023-02-12T03:35:02;98940.53;;;1.12;75.31
29733;BME280;16643;43.158;25.302;2023-02-12T03:37:32;98949.06;;;1.13;75.51
29733;BME280;16643;43.158;25.302;2023-02-12T03:40:14;98937.94;;;1.11;76.00
29733;BME280;16643;43.158;25.302;2023-02-12T03:48:01;98938.94;;;1.19;75.20
29733;BME280;16643;43.158;25.302;2023-02-12T03:50:36;98932.91;;;1.17;75.83
29733;BME280;16643;43.158;25.302;2023-02-12T03:53:05;98944.03;;;1.17;76.71
29733;BME280;16643;43.158;25.302;2023-02-12T03:55:31;98951.78;;;1.20;76.40
29733;BME280;16643;43.158;25.302;2023-02-12T03:57:58;98955.22;;;1.22;75.46
29733;BME280;16643;43.158;25.302;2023-02-12T04:00:25;98944.13;;;1.22;75.04
29733;BME280;16643;43.158;25.302;2023-02-12T04:02:51;98948.41;;;1.23;75.45
29733;BME280;16643;43.158;25.302;2023-02-12T04:05:18;98951.66;;;1.16;76.38
29733;BME280;16643;43.158;25.302;2023-02-12T04:07:44;98955.06;;;1.15;75.83
29733;BME280;16643;43.158;25.302;2023-02-12T04:10:10;98950.88;;;1.18;75.18
29733;BME280;16643;43.158;25.302;2023-02-12T04:12:39;98948.38;;;1.21;75.51
29733;BME280;16643;43.158;25.302;2023-02-12T04:15:21;98959.53;;;1.23;75.43
29733;BME280;16643;43.158;25.302;2023-02-12T04:18:09;98958.63;;;1.21;75.51
29733;BME280;16643;43.158;25.302;2023-02-12T04:20:40;98958.66;;;1.23;75.25
29733;BME280;16643;43.158;25.302;2023-02-12T04:25:51;98986.81;;;1.23;75.78
29733;BME280;16643;43.158;25.302;2023-02-12T04:30:53;98984.25;;;1.24;76.70
29733;BME280;16643;43.158;25.302;2023-02-12T04:33:21;98980.03;;;1.26;76.96
29733;BME280;16643;43.158;25.302;2023-02-12T04:38:15;98996.13;;;1.19;77.14
29733;BME280;16643;43.158;25.302;2023-02-12T04:40:43;98996.94;;;1.18;77.17
29733;BME280;16643;43.158;25.302;2023-02-12T04:43:09;99003.84;;;1.21;76.64
29733;BME280;16643;43.158;25.302;2023-02-12T04:45:35;99009.09;;;1.28;76.16
29733;BME280;16643;43.158;25.302;2023-02-12T04:48:01;99003.19;;;1.31;76.44
29733;BME280;16643;43.158;25.302;2023-02-12T04:50:28;99012.69;;;1.35;75.91
29733;BME280;16643;43.158;25.302;2023-02-12T04:52:58;99010.13;;;1.35;76.61
29733;BME280;16643;43.158;25.302;2023-02-12T04:55:24;99016.84;;;1.31;76.91
29733;BME280;16643;43.158;25.302;2023-02-12T04:57:49;99020.34;;;1.35;75.99
29733;BME280;16643;43.158;25.302;2023-02-12T05:00:14;99022.91;;;1.35;76.65
29733;BME280;16643;43.158;25.302;2023-02-12T05:02:40;99019.50;;;1.36;77.13
29733;BME280;16643;43.158;25.302;2023-02-12T05:05:06;99017.75;;;1.33;77.17
29733;BME280;16643;43.158;25.302;2023-02-12T05:07:31;99015.19;;;1.33;76.27
29733;BME280;16643;43.158;25.302;2023-02-12T05:09:56;99020.41;;;1.38;75.95
29733;BME280;16643;43.158;25.302;2023-02-12T05:12:22;99022.88;;;1.33;76.83
29733;BME280;16643;43.158;25.302;2023-02-12T05:14:47;99022.03;;;1.33;77.98
29733;BME280;16643;43.158;25.302;2023-02-12T05:17:13;99022.13;;;1.39;77.01
29733;BME280;16643;43.158;25.302;2023-02-12T05:19:38;99038.34;;;1.39;77.84
29733;BME280;16643;43.158;25.302;2023-02-12T05:22:04;99036.59;;;1.35;77.29
29733;BME280;16643;43.158;25.302;2023-02-12T05:24:29;99041.72;;;1.37;78.44
29733;BME280;16643;43.158;25.302;2023-02-12T05:26:55;99047.63;;;1.33;78.22
29733;BME280;16643;43.158;25.302;2023-02-12T05:29:20;99051.94;;;1.35;78.61
29733;BME280;16643;43.158;25.302;2023-02-12T05:31:45;99057.00;;;1.32;77.97
29733;BME280;16643;43.158;25.302;2023-02-12T05:34:11;99057.03;;;1.34;77.84
29733;BME280;16643;43.158;25.302;2023-02-12T05:36:37;99060.50;;;1.37;77.95
29733;BME280;16643;43.158;25.302;2023-02-12T05:39:03;99060.47;;;1.36;77.80
29733;BME280;16643;43.158;25.302;2023-02-12T05:41:28;99060.53;;;1.39;78.30
29733;BME280;16643;43.158;25.302;2023-02-12T05:43:59;99073.31;;;1.37;77.29
29733;BME280;16643;43.158;25.302;2023-02-12T05:46:24;99079.28;;;1.38;78.29
29733;BME280;16643;43.158;25.302;2023-02-12T05:48:50;99085.28;;;1.38;76.41
29733;BME280;16643;43.158;25.302;2023-02-12T05:51:19;99093.81;;;1.39;77.24
29733;BME280;16643;43.158;25.302;2023-02-12T05:53:46;99098.28;;;1.48;76.45
29733;BME280;16643;43.158;25.302;2023-02-12T05:56:12;99104.25;;;1.47;77.08
29733;BME280;16643;43.158;25.302;2023-02-12T05:58:38;99105.88;;;1.43;78.09
29733;BME280;16643;43.158;25.302;2023-02-12T06:01:08;99111.06;;;1.46;77.64
29733;BME280;16643;43.158;25.302;2023-02-12T06:03:35;99117.94;;;1.49;77.27
29733;BME280;16643;43.158;25.302;2023-02-12T06:06:00;99119.63;;;1.48;77.91
29733;BME280;16643;43.158;25.302;2023-02-12T06:08:26;99122.38;;;1.56;77.36
29733;BME280;16643;43.158;25.302;2023-02-12T06:10:51;99124.00;;;1.52;77.54
29733;BME280;16643;43.158;25.302;2023-02-12T06:13:17;99124.84;;;1.51;77.63
29733;BME280;16643;43.158;25.302;2023-02-12T06:15:42;99129.13;;;1.52;76.71
29733;BME280;16643;43.158;25.302;2023-02-12T06:18:08;99124.75;;;1.48;77.97
29733;BME280;16643;43.158;25.302;2023-02-12T06:20:33;99128.16;;;1.47;77.28
29733;BME280;16643;43.158;25.302;2023-02-12T06:22:58;99133.28;;;1.47;78.32
29733;BME280;16643;43.158;25.302;2023-02-12T06:25:24;99133.41;;;1.53;77.79
29733;BME280;16643;43.158;25.302;2023-02-12T06:27:49;99133.50;;;1.56;77.86
29733;BME280;16643;43.158;25.302;2023-02-12T06:30:15;99130.03;;;1.54;77.81
29733;BME280;16643;43.158;25.302;2023-02-12T06:32:40;99134.28;;;1.54;77.98
29733;BME280;16643;43.158;25.302;2023-02-12T06:35:06;99132.56;;;1.53;77.62
29733;BME280;16643;43.158;25.302;2023-02-12T06:37:31;99138.47;;;1.50;78.05
29733;BME280;16643;43.158;25.302;2023-02-12T06:40:02;99126.38;;;1.43;79.44
29733;BME280;16643;43.158;25.302;2023-02-12T06:42:27;99134.25;;;1.52;78.90
29733;BME280;16643;43.158;25.302;2023-02-12T06:44:52;99141.06;;;1.52;78.38
29733;BME280;16643;43.158;25.302;2023-02-12T06:47:18;99145.41;;;1.54;78.97
29733;BME280;16643;43.158;25.302;2023-02-12T06:49:43;99150.59;;;1.59;78.26
29733;BME280;16643;43.158;25.302;2023-02-12T06:52:09;99157.69;;;1.69;77.96
29733;BME280;16643;43.158;25.302;2023-02-12T06:54:34;99160.22;;;1.67;78.34
29733;BME280;16643;43.158;25.302;2023-02-12T06:56:59;99153.50;;;1.74;77.47
29733;BME280;16643;43.158;25.302;2023-02-12T06:59:25;99163.84;;;1.77;77.31
29733;BME280;16643;43.158;25.302;2023-02-12T07:01:50;99175.03;;;1.82;77.28
29733;BME280;16643;43.158;25.302;2023-02-12T07:04:16;99166.72;;;1.92;77.12
29733;BME280;16643;43.158;25.302;2023-02-12T07:06:41;99169.22;;;1.89;77.80
29733;BME280;16643;43.158;25.302;2023-02-12T07:09:07;99179.53;;;1.92;76.48
29733;BME280;16643;43.158;25.302;2023-02-12T07:11:33;99182.91;;;1.90;77.68
29733;BME280;16643;43.158;25.302;2023-02-12T07:13:59;99176.00;;;1.87;78.28
29733;BME280;16643;43.158;25.302;2023-02-12T07:16:25;99168.47;;;1.95;77.83
29733;BME280;16643;43.158;25.302;2023-02-12T07:18:50;99172.84;;;1.99;76.84
29733;BME280;16643;43.158;25.302;2023-02-12T07:21:16;99170.28;;;1.99;77.01
29733;BME280;16643;43.158;25.302;2023-02-12T07:23:49;99174.84;;;2.12;77.52
29733;BME280;16643;43.158;25.302;2023-02-12T07:26:15;99173.91;;;2.08;76.96
29733;BME280;16643;43.158;25.302;2023-02-12T07:28:40;99183.44;;;2.15;76.76
29733;BME280;16643;43.158;25.302;2023-02-12T07:31:07;99184.38;;;2.19;75.99
29733;BME280;16643;43.158;25.302;2023-02-12T07:33:33;99187.72;;;2.16;76.63
29733;BME280;16643;43.158;25.302;2023-02-12T07:35:59;99183.75;;;2.31;75.92
29733;BME280;16643;43.158;25.302;2023-02-12T07:38:24;99185.38;;;2.27;75.98
29733;BME280;16643;43.158;25.302;2023-02-12T07:40:50;99185.38;;;2.26;75.12
29733;BME280;16643;43.158;25.302;2023-02-12T07:43:15;99181.69;;;2.14;76.45
29733;BME280;16643;43.158;25.302;2023-02-12T07:45:40;99183.59;;;2.22;76.76
29733;BME280;16643;43.158;25.302;2023-02-12T07:48:06;99188.72;;;2.22;76.80
29733;BME280;16643;43.158;25.302;2023-02-12T07:50:31;99195.66;;;2.27;74.97
29733;BME280;16643;43.158;25.302;2023-02-12T07:52:57;99190.56;;;2.29;76.20
29733;BME280;16643;43.158;25.302;2023-02-12T07:55:22;99195.72;;;2.30;75.88
29733;BME280;16643;43.158;25.302;2023-02-12T07:57:48;99195.78;;;2.33;75.96
29733;BME280;16643;43.158;25.302;2023-02-12T08:00:13;99182.94;;;2.32;75.74
29733;BME280;16643;43.158;25.302;2023-02-12T08:02:39;99187.19;;;2.31;75.65
29733;BME280;16643;43.158;25.302;2023-02-12T08:05:05;99188.78;;;2.26;76.55
29733;BME280;16643;43.158;25.302;2023-02-12T08:07:30;99187.88;;;2.23;75.96
29733;BME280;16643;43.158;25.302;2023-02-12T08:09:56;99195.72;;;2.30;75.80
29733;BME280;16643;43.158;25.302;2023-02-12T08:12:21;99196.66;;;2.34;76.87
29733;BME280;16643;43.158;25.302;2023-02-12T08:14:48;99193.31;;;2.39;75.87
29733;BME280;16643;43.158;25.302;2023-02-12T08:17:13;99202.13;;;2.52;76.04
29733;BME280;16643;43.158;25.302;2023-02-12T08:19:39;99205.13;;;2.75;74.51
29733;BME280;16643;43.158;25.302;2023-02-12T08:22:04;99205.19;;;2.78;74.42
29733;BME280;16643;43.158;25.302;2023-02-12T08:24:30;99209.47;;;2.77;73.47
29733;BME280;16643;43.158;25.302;2023-02-12T08:26:56;99209.50;;;2.79;73.48
29733;BME280;16643;43.158;25.302;2023-02-12T08:29:23;99215.34;;;2.72;72.93
29733;BME280;16643;43.158;25.302;2023-02-12T08:31:49;99206.13;;;2.81;72.19
29733;BME280;16643;43.158;25.302;2023-02-12T08:34:19;99211.31;;;2.84;71.86
29733;BME280;16643;43.158;25.302;2023-02-12T08:36:46;99224.31;;;2.92;72.04
29733;BME280;16643;43.158;25.302;2023-02-12T08:39:12;99220.13;;;2.99;70.55
29733;BME280;16643;43.158;25.302;2023-02-12T08:41:38;99220.25;;;3.05;71.24
29733;BME280;16643;43.158;25.302;2023-02-12T08:44:04;99220.47;;;3.18;71.38
29733;BME280;16643;43.158;25.302;2023-02-12T08:46:37;99230.91;;;3.29;69.91
29733;BME280;16643;43.158;25.302;2023-02-12T08:49:06;99231.09;;;3.38;72.01
29733;BME280;16643;43.158;25.302;2023-02-12T08:51:34;99218.38;;;3.46;70.98
29733;BME280;16643;43.158;25.302;2023-02-12T08:54:01;99221.13;;;3.58;68.78
29733;BME280;16643;43.158;25.302;2023-02-12T08:56:28;99211.63;;;3.52;69.49
29733;BME280;16643;43.158;25.302;2023-02-12T08:58:57;99213.25;;;3.47;69.92
29733;BME280;16643;43.158;25.302;2023-02-12T09:01:26;99215.03;;;3.51;70.26
29733;BME280;16643;43.158;25.302;2023-02-12T09:03:51;99211.84;;;3.68;69.04
29733;BME280;16643;43.158;25.302;2023-02-12T09:06:18;99216.56;;;3.94;68.86
29733;BME280;16643;43.158;25.302;2023-02-12T09:08:44;99217.25;;;3.83;69.11
29733;BME280;16643;43.158;25.302;2023-02-12T09:11:13;99215.41;;;3.76;68.80
29733;BME280;16643;43.158;25.302;2023-02-12T09:13:42;99227.56;;;3.87;68.80
29733;BME280;16643;43.158;25.302;2023-02-12T09:16:08;99236.41;;;4.05;67.64
29733;BME280;16643;43.158;25.302;2023-02-12T09:18:34;99235.13;;;4.37;68.46
29733;BME280;16643;43.158;25.302;2023-02-12T09:21:04;99242.38;;;4.70;67.45
29733;BME280;16643;43.158;25.302;2023-02-12T09:23:30;99247.00;;;5.00;66.13
29733;BME280;16643;43.158;25.302;2023-02-12T09:25:56;99246.13;;;4.99;66.28
29733;BME280;16643;43.158;25.302;2023-02-12T09:28:21;99244.44;;;5.00;64.80
29733;BME280;16643;43.158;25.302;2023-02-12T09:30:46;99262.44;;;4.95;64.55
29733;BME280;16643;43.158;25.302;2023-02-12T09:33:13;99260.63;;;4.88;64.90
29733;BME280;16643;43.158;25.302;2023-02-12T09:35:38;99262.34;;;4.89;65.73
29733;BME280;16643;43.158;25.302;2023-02-12T09:38:04;99271.13;;;5.05;65.23
29733;BME280;16643;43.158;25.302;2023-02-12T09:43:04;99261.00;;;5.23;64.52
29733;BME280;16643;43.158;25.302;2023-02-12T09:45:41;99273.00;;;5.23;65.55
29733;BME280;16643;43.158;25.302;2023-02-12T09:48:15;99291.06;;;5.24;63.91
29733;BME280;16643;43.158;25.302;2023-02-12T09:50:51;99292.13;;;5.44;64.44
29733;BME280;16643;43.158;25.302;2023-02-12T09:53:18;99301.56;;;5.41;63.32
29733;BME280;16643;43.158;25.302;2023-02-12T09:55:45;99309.16;;;5.29;63.92
29733;BME280;16643;43.158;25.302;2023-02-12T10:01:00;99301.09;;;5.00;65.70
29733;BME280;16643;43.158;25.302;2023-02-12T10:03:26;99301.09;;;5.00;65.33
29733;BME280;16643;43.158;25.302;2023-02-12T10:06:00;99301.03;;;4.94;66.46
29733;BME280;16643;43.158;25.302;2023-02-12T10:08:33;99304.44;;;4.90;66.46
29733;BME280;16643;43.158;25.302;2023-02-12T10:13:42;99301.22;;;4.41;68.77
29733;BME280;16643;43.158;25.302;2023-02-12T10:16:13;99308.75;;;4.27;70.80
29733;BME280;16643;43.158;25.302;2023-02-12T10:19:04;99302.38;;;4.03;71.74
29733;BME280;16643;43.158;25.302;2023-02-12T10:23:55;99318.13;;;4.24;71.30
29733;BME280;16643;43.158;25.302;2023-02-12T10:26:28;99314.59;;;4.16;72.03
29733;BME280;16643;43.158;25.302;2023-02-12T10:28:56;99320.44;;;4.07;71.08
29733;BME280;16643;43.158;25.302;2023-02-12T10:31:34;99325.69;;;4.13;71.49
29733;BME280;16643;43.158;25.302;2023-02-12T10:34:05;99327.41;;;4.13;71.40
29733;BME280;16643;43.158;25.302;2023-02-12T10:36:47;99336.81;;;4.12;71.07
29733;BME280;16643;43.158;25.302;2023-02-12T10:39:20;99334.34;;;4.20;72.25
29733;BME280;16643;43.158;25.302;2023-02-12T10:44:27;99330.25;;;4.31;72.26
29733;BME280;16643;43.158;25.302;2023-02-12T10:46:52;99333.75;;;4.36;70.87
29733;BME280;16643;43.158;25.302;2023-02-12T10:49:18;99325.00;;;4.25;72.31
29733;BME280;16643;43.158;25.302;2023-02-12T10:51:53;99331.09;;;4.31;71.00
29733;BME280;16643;43.158;25.302;2023-02-12T10:57:12;99335.94;;;4.10;72.29
29733;BME280;16643;43.158;25.302;2023-02-12T10:59:39;99341.25;;;4.21;73.31
29733;BME280;16643;43.158;25.302;2023-02-12T11:02:19;99334.34;;;4.17;72.29
29733;BME280;16643;43.158;25.302;2023-02-12T11:04:45;99340.50;;;4.28;72.22
29733;BME280;16643;43.158;25.302;2023-02-12T11:07:10;99346.69;;;4.39;71.56
29733;BME280;16643;43.158;25.302;2023-02-12T11:09:37;99344.13;;;4.42;70.51
29733;BME280;16643;43.158;25.302;2023-02-12T11:14:53;99334.91;;;4.58;69.12
29733;BME280;16643;43.158;25.302;2023-02-12T11:17:22;99339.41;;;4.72;71.68
29733;BME280;16643;43.158;25.302;2023-02-12T11:19:59;99340.34;;;4.79;71.16
29733;BME280;16643;43.158;25.302;2023-02-12T11:22:26;99335.53;;;5.05;70.83
29733;BME280;16643;43.158;25.302;2023-02-12T11:24:58;99337.53;;;5.33;69.72
29733;BME280;16643;43.158;25.302;2023-02-12T11:27:25;99342.97;;;5.58;69.31
29733;BME280;16643;43.158;25.302;2023-02-12T11:30:35;99328.63;;;5.86;68.33
29733;BME280;16643;43.158;25.302;2023-02-12T11:32:41;99336.56;;;6.07;67.85
29733;BME280;16643;43.158;25.302;2023-02-12T11:35:12;99335.88;;;6.29;66.77
29733;BME280;16643;43.158;25.302;2023-02-12T11:37:39;99335.78;;;6.22;66.42
29733;BME280;16643;43.158;25.302;2023-02-12T11:40:05;99314.16;;;6.04;66.04
29733;BME280;16643;43.158;25.302;2023-02-12T11:42:32;99329.31;;;5.68;66.30
29733;BME280;16643;43.158;25.302;2023-02-12T11:44:59;99330.78;;;5.44;67.03
29733;BME280;16643;43.158;25.302;2023-02-12T11:47:26;99334.97;;;5.33;67.42
29733;BME280;16643;43.158;25.302;2023-02-12T11:49:57;99339.16;;;5.24;67.68
29733;BME280;16643;43.158;25.302;2023-02-12T11:52:27;99335.84;;;5.35;67.78
29733;BME280;16643;43.158;25.302;2023-02-12T11:54:56;99339.44;;;5.50;68.26
29733;BME280;16643;43.158;25.302;2023-02-12T11:57:43;99334.09;;;5.31;66.97
29733;BME280;16643;43.158;25.302;2023-02-12T12:00:20;99341.06;;;5.40;66.90
29733;BME280;16643;43.158;25.302;2023-02-12T12:03:33;99337.53;;;5.30;64.94
29733;BME280;16643;43.158;25.302;2023-02-12T12:05:36;99338.25;;;5.20;67.07
29733;BME280;16643;43.158;25.302;2023-02-12T12:08:04;99343.41;;;5.20;68.02
29733;BME280;16643;43.158;25.302;2023-02-12T12:10:48;99343.31;;;5.11;69.73
29733;BME280;16643;43.158;25.302;2023-02-12T12:13:17;99347.59;;;5.07;68.40
29733;BME280;16643;43.158;25.302;2023-02-12T12:15:48;99350.91;;;5.00;67.90
29733;BME280;16643;43.158;25.302;2023-02-12T12:23:54;99345.59;;;4.87;69.93
29733;BME280;16643;43.158;25.302;2023-02-12T12:26:23;99343.00;;;4.84;70.87
29733;BME280;16643;43.158;25.302;2023-02-12T12:29:06;99353.41;;;4.93;70.35
29733;BME280;16643;43.158;25.302;2023-02-12T12:31:38;99348.41;;;5.08;70.00
29733;BME280;16643;43.158;25.302;2023-02-12T12:34:06;99346.91;;;5.24;69.36
29733;BME280;16643;43.158;25.302;2023-02-12T12:55:10;99378.03;;;4.74;69.02
29733;BME280;16643;43.158;25.302;2023-02-12T13:05:18;99386.47;;;4.61;71.30
29733;BME280;16643;43.158;25.302;2023-02-12T13:11:05;99395.22;;;4.75;71.00
29733;BME280;16643;43.158;25.302;2023-02-12T13:13:27;99400.38;;;4.75;70.81
29733;BME280;16643;43.158;25.302;2023-02-12T13:18:45;99403.47;;;4.53;71.60
29733;BME280;16643;43.158;25.302;2023-02-12T13:28:47;99418.75;;;4.39;72.12
29733;BME280;16643;43.158;25.302;2023-02-12T13:31:21;99416.84;;;4.29;74.04
29733;BME280;16643;43.158;25.302;2023-02-12T13:33:52;99416.75;;;4.23;73.51
29733;BME280;16643;43.158;25.302;2023-02-12T13:36:19;99425.19;;;4.14;72.63
29733;BME280;16643;43.158;25.302;2023-02-12T13:38:45;99425.00;;;4.04;73.39
29733;BME280;16643;43.158;25.302;2023-02-12T13:41:13;99425.91;;;4.06;74.26
29733;BME280;16643;43.158;25.302;2023-02-12T13:52:14;99443.91;;;4.07;75.46
29733;BME280;16643;43.158;25.302;2023-02-12T13:56:57;99458.44;;;4.04;75.10
29733;BME280;16643;43.158;25.302;2023-02-12T14:01:59;99457.56;;;4.03;75.97
29733;BME280;16643;43.158;25.302;2023-02-12T14:04:36;99469.44;;;3.95;77.04
29733;BME280;16643;43.158;25.302;2023-02-12T14:07:06;99470.13;;;3.86;77.09
29733;BME280;16643;43.158;25.302;2023-02-12T14:11:58;99468.09;;;3.70;78.92
29733;BME280;16643;43.158;25.302;2023-02-12T14:14:43;99476.56;;;3.64;80.10
29733;BME280;16643;43.158;25.302;2023-02-12T14:27:53;99506.72;;;3.33;82.60
29733;BME280;16643;43.158;25.302;2023-02-12T14:30:25;99515.44;;;3.38;83.29
29733;BME280;16643;43.158;25.302;2023-02-12T14:37:55;99523.84;;;3.32;84.87
29733;BME280;16643;43.158;25.302;2023-02-12T14:42:59;99532.28;;;3.25;84.85
29733;BME280;16643;43.158;25.302;2023-02-12T14:45:34;99530.66;;;3.30;85.51
29733;BME280;16643;43.158;25.302;2023-02-12T14:48:00;99540.00;;;3.26;85.76
29733;BME280;16643;43.158;25.302;2023-02-12T14:50:34;99545.94;;;3.24;86.33
29733;BME280;16643;43.158;25.302;2023-02-12T14:53:21;99537.50;;;3.29;85.81
29733;BME280;16643;43.158;25.302;2023-02-12T14:55:50;99538.50;;;3.36;85.44
29733;BME280;16643;43.158;25.302;2023-02-12T14:58:20;99549.03;;;3.47;85.44
29733;BME280;16643;43.158;25.302;2023-02-12T15:00:47;99555.19;;;3.55;85.45
29733;BME280;16643;43.158;25.302;2023-02-12T15:10:58;99557.03;;;3.60;85.49
29733;BME280;16643;43.158;25.302;2023-02-12T15:13:27;99564.75;;;3.62;85.76
29733;BME280;16643;43.158;25.302;2023-02-12T15:26:02;99565.88;;;3.75;85.40
29733;BME280;16643;43.158;25.302;2023-02-12T15:28:31;99571.09;;;3.78;85.32
29733;BME280;16643;43.158;25.302;2023-02-12T15:30:59;99567.66;;;3.77;85.76
29733;BME280;16643;43.158;25.302;2023-02-12T15:33:33;99576.19;;;3.76;85.45